sensor_id;sensor_type;location;lat;lon;timestamp;P1;durP1;ratioP1;P2;durP2;ratioP2
51374;SDS011;37465;52.738;4.752;2022-10-16T00:02:21;8.45;;;1.40;;
51374;SDS011;37465;52.738;4.752;2022-10-16T00:04:48;9.05;;;1.70;;
51374;SDS011;37465;52.738;4.752;2022-10-16T00:07:16;8.13;;;1.58;;
51374;SDS011;37465;52.738;4.752;2022-10-16T00:09:45;10.77;;;1.88;;
51374;SDS011;37465;52.738;4.752;2022-10-16T00:12:12;5.25;;;1.13;;
51374;SDS011;37465;52.738;4.752;2022-10-16T00:14:40;8.13;;;1.60;;
51374;SDS011;37465;52.738;4.752;2022-10-16T00:17:09;5.85;;;1.48;;
51374;SDS011;37465;52.738;4.752;2022-10-16T00:19:37;10.13;;;1.90;;
51374;SDS011;37465;52.738;4.752;2022-10-16T00:22:04;7.05;;;1.60;;
51374;SDS011;37465;52.738;4.752;2022-10-16T00:24:32;5.13;;;1.60;;
51374;SDS011;37465;52.738;4.752;2022-10-16T00:27:00;9.18;;;1.77;;
51374;SDS011;37465;52.738;4.752;2022-10-16T00:29:28;8.77;;;1.77;;
51374;SDS011;37465;52.738;4.752;2022-10-16T00:31:55;6.63;;;1.70;;
51374;SDS011;37465;52.738;4.752;2022-10-16T00:34:22;9.20;;;2.08;;
51374;SDS011;37465;52.738;4.752;2022-10-16T00:36:50;9.75;;;1.88;;
51374;SDS011;37465;52.738;4.752;2022-10-16T00:39:17;9.50;;;2.00;;
51374;SDS011;37465;52.738;4.752;2022-10-16T00:41:45;9.40;;;2.00;;
51374;SDS011;37465;52.738;4.752;2022-10-16T00:47:00;8.38;;;2.00;;
51374;SDS011;37465;52.738;4.752;2022-10-16T00:49:27;11.27;;;2.57;;
51374;SDS011;37465;52.738;4.752;2022-10-16T00:51:55;13.52;;;2.17;;
51374;SDS011;37465;52.738;4.752;2022-10-16T00:54:23;5.75;;;1.70;;
51374;SDS011;37465;52.738;4.752;2022-10-16T00:56:51;7.72;;;1.95;;
51374;SDS011;37465;52.738;4.752;2022-10-16T00:59:20;9.25;;;2.00;;
51374;SDS011;37465;52.738;4.752;2022-10-16T01:01:50;11.00;;;2.33;;
51374;SDS011;37465;52.738;4.752;2022-10-16T01:04:19;12.93;;;2.30;;
51374;SDS011;37465;52.738;4.752;2022-10-16T01:06:48;11.63;;;2.30;;
51374;SDS011;37465;52.738;4.752;2022-10-16T01:09:18;13.13;;;3.17;;
51374;SDS011;37465;52.738;4.752;2022-10-16T01:11:49;9.07;;;1.90;;
51374;SDS011;37465;52.738;4.752;2022-10-16T01:14:21;9.55;;;2.30;;
51374;SDS011;37465;52.738;4.752;2022-10-16T01:16:49;10.10;;;2.15;;
51374;SDS011;37465;52.738;4.752;2022-10-16T01:19:24;7.60;;;2.17;;
51374;SDS011;37465;52.738;4.752;2022-10-16T01:21:54;9.02;;;2.22;;
51374;SDS011;37465;52.738;4.752;2022-10-16T01:24:25;10.67;;;2.40;;
51374;SDS011;37465;52.738;4.752;2022-10-16T01:27:07;8.82;;;2.20;;
51374;SDS011;37465;52.738;4.752;2022-10-16T01:29:37;7.70;;;2.17;;
51374;SDS011;37465;52.738;4.752;2022-10-16T01:32:08;8.65;;;2.28;;
51374;SDS011;37465;52.738;4.752;2022-10-16T01:34:38;8.27;;;2.00;;
51374;SDS011;37465;52.738;4.752;2022-10-16T01:37:09;7.57;;;2.00;;
51374;SDS011;37465;52.738;4.752;2022-10-16T01:39:38;10.82;;;2.30;;
51374;SDS011;37465;52.738;4.752;2022-10-16T01:42:09;8.05;;;1.92;;
51374;SDS011;37465;52.738;4.752;2022-10-16T01:44:38;8.47;;;1.80;;
51374;SDS011;37465;52.738;4.752;2022-10-16T01:47:07;9.05;;;1.98;;
51374;SDS011;37465;52.738;4.752;2022-10-16T01:49:36;9.90;;;1.98;;
51374;SDS011;37465;52.738;4.752;2022-10-16T01:52:06;8.95;;;2.20;;
51374;SDS011;37465;52.738;4.752;2022-10-16T01:54:35;11.80;;;2.25;;
51374;SDS011;37465;52.738;4.752;2022-10-16T01:57:04;10.30;;;2.47;;
51374;SDS011;37465;52.738;4.752;2022-10-16T01:59:35;13.15;;;2.65;;
51374;SDS011;37465;52.738;4.752;2022-10-16T02:02:05;13.73;;;2.55;;
51374;SDS011;37465;52.738;4.752;2022-10-16T02:04:34;14.13;;;2.53;;
51374;SDS011;37465;52.738;4.752;2022-10-16T02:07:03;14.13;;;2.63;;
51374;SDS011;37465;52.738;4.752;2022-10-16T02:09:32;14.43;;;2.47;;
51374;SDS011;37465;52.738;4.752;2022-10-16T02:12:01;11.63;;;2.30;;
51374;SDS011;37465;52.738;4.752;2022-10-16T02:14:30;10.43;;;2.20;;
51374;SDS011;37465;52.738;4.752;2022-10-16T02:16:59;13.30;;;2.75;;
51374;SDS011;37465;52.738;4.752;2022-10-16T02:19:26;13.52;;;2.78;;
51374;SDS011;37465;52.738;4.752;2022-10-16T02:21:55;9.98;;;2.15;;
51374;SDS011;37465;52.738;4.752;2022-10-16T02:24:24;14.82;;;2.50;;
51374;SDS011;37465;52.738;4.752;2022-10-16T02:26:56;10.05;;;2.30;;
51374;SDS011;37465;52.738;4.752;2022-10-16T02:29:25;11.07;;;2.15;;
51374;SDS011;37465;52.738;4.752;2022-10-16T02:31:54;12.35;;;2.28;;
51374;SDS011;37465;52.738;4.752;2022-10-16T02:34:24;11.32;;;2.30;;
51374;SDS011;37465;52.738;4.752;2022-10-16T02:36:53;10.10;;;2.28;;
51374;SDS011;37465;52.738;4.752;2022-10-16T02:39:20;10.90;;;1.92;;
51374;SDS011;37465;52.738;4.752;2022-10-16T02:41:48;10.05;;;1.90;;
51374;SDS011;37465;52.738;4.752;2022-10-16T02:44:15;9.17;;;2.37;;
51374;SDS011;37465;52.738;4.752;2022-10-16T02:46:43;10.60;;;2.33;;
51374;SDS011;37465;52.738;4.752;2022-10-16T02:49:10;9.33;;;1.93;;
51374;SDS011;37465;52.738;4.752;2022-10-16T02:51:39;8.75;;;1.90;;
51374;SDS011;37465;52.738;4.752;2022-10-16T02:54:06;9.15;;;2.17;;
51374;SDS011;37465;52.738;4.752;2022-10-16T02:56:34;10.90;;;2.08;;
51374;SDS011;37465;52.738;4.752;2022-10-16T02:59:01;7.53;;;2.10;;
51374;SDS011;37465;52.738;4.752;2022-10-16T03:01:28;10.63;;;2.20;;
51374;SDS011;37465;52.738;4.752;2022-10-16T03:03:56;10.38;;;2.10;;
51374;SDS011;37465;52.738;4.752;2022-10-16T03:06:23;9.25;;;1.95;;
51374;SDS011;37465;52.738;4.752;2022-10-16T03:08:52;9.43;;;2.20;;
51374;SDS011;37465;52.738;4.752;2022-10-16T03:11:19;12.25;;;2.47;;
51374;SDS011;37465;52.738;4.752;2022-10-16T03:13:47;12.63;;;2.37;;
51374;SDS011;37465;52.738;4.752;2022-10-16T03:16:14;10.75;;;2.20;;
51374;SDS011;37465;52.738;4.752;2022-10-16T03:18:41;8.70;;;2.20;;
51374;SDS011;37465;52.738;4.752;2022-10-16T03:21:09;8.77;;;1.92;;
51374;SDS011;37465;52.738;4.752;2022-10-16T03:23:36;8.23;;;1.67;;
51374;SDS011;37465;52.738;4.752;2022-10-16T03:26:05;9.63;;;2.10;;
51374;SDS011;37465;52.738;4.752;2022-10-16T03:28:32;11.00;;;2.10;;
51374;SDS011;37465;52.738;4.752;2022-10-16T03:31:00;11.05;;;2.40;;
51374;SDS011;37465;52.738;4.752;2022-10-16T03:33:27;11.18;;;2.50;;
51374;SDS011;37465;52.738;4.752;2022-10-16T03:35:55;11.77;;;2.33;;
51374;SDS011;37465;52.738;4.752;2022-10-16T03:38:22;12.65;;;2.55;;
51374;SDS011;37465;52.738;4.752;2022-10-16T03:40:50;15.50;;;2.80;;
51374;SDS011;37465;52.738;4.752;2022-10-16T03:43:19;16.70;;;2.92;;
51374;SDS011;37465;52.738;4.752;2022-10-16T03:45:46;16.60;;;2.70;;
51374;SDS011;37465;52.738;4.752;2022-10-16T03:48:13;15.13;;;2.88;;
51374;SDS011;37465;52.738;4.752;2022-10-16T03:50:41;22.20;;;3.63;;
51374;SDS011;37465;52.738;4.752;2022-10-16T03:53:08;16.53;;;3.23;;
51374;SDS011;37465;52.738;4.752;2022-10-16T03:55:36;18.50;;;3.40;;
51374;SDS011;37465;52.738;4.752;2022-10-16T03:58:03;17.80;;;3.28;;
51374;SDS011;37465;52.738;4.752;2022-10-16T04:00:32;22.00;;;3.67;;
51374;SDS011;37465;52.738;4.752;2022-10-16T04:03:00;16.95;;;2.72;;
51374;SDS011;37465;52.738;4.752;2022-10-16T04:05:27;13.57;;;2.80;;
51374;SDS011;37465;52.738;4.752;2022-10-16T04:07:55;17.70;;;3.30;;
51374;SDS011;37465;52.738;4.752;2022-10-16T04:10:22;15.10;;;2.90;;
51374;SDS011;37465;52.738;4.752;2022-10-16T04:12:50;17.98;;;2.80;;
51374;SDS011;37465;52.738;4.752;2022-10-16T04:15:17;18.30;;;3.17;;
51374;SDS011;37465;52.738;4.752;2022-10-16T04:17:46;13.77;;;2.73;;
51374;SDS011;37465;52.738;4.752;2022-10-16T04:20:13;17.38;;;3.28;;
51374;SDS011;37465;52.738;4.752;2022-10-16T04:22:41;14.55;;;3.22;;
51374;SDS011;37465;52.738;4.752;2022-10-16T04:25:08;12.40;;;2.97;;
51374;SDS011;37465;52.738;4.752;2022-10-16T04:27:35;15.98;;;3.40;;
51374;SDS011;37465;52.738;4.752;2022-10-16T04:30:09;15.52;;;3.10;;
51374;SDS011;37465;52.738;4.752;2022-10-16T04:32:36;12.55;;;2.83;;
51374;SDS011;37465;52.738;4.752;2022-10-16T04:35:05;14.85;;;2.72;;
51374;SDS011;37465;52.738;4.752;2022-10-16T04:37:33;13.77;;;3.03;;
51374;SDS011;37465;52.738;4.752;2022-10-16T04:40:00;15.23;;;3.30;;
51374;SDS011;37465;52.738;4.752;2022-10-16T04:42:28;15.02;;;2.60;;
51374;SDS011;37465;52.738;4.752;2022-10-16T04:44:55;13.07;;;2.30;;
51374;SDS011;37465;52.738;4.752;2022-10-16T04:47:23;19.77;;;3.20;;
51374;SDS011;37465;52.738;4.752;2022-10-16T04:49:50;15.50;;;2.70;;
51374;SDS011;37465;52.738;4.752;2022-10-16T04:52:19;21.20;;;3.25;;
51374;SDS011;37465;52.738;4.752;2022-10-16T04:54:47;17.90;;;3.28;;
51374;SDS011;37465;52.738;4.752;2022-10-16T04:57:16;13.93;;;3.35;;
51374;SDS011;37465;52.738;4.752;2022-10-16T04:59:43;15.45;;;3.13;;
51374;SDS011;37465;52.738;4.752;2022-10-16T05:02:11;16.88;;;3.28;;
51374;SDS011;37465;52.738;4.752;2022-10-16T05:04:38;15.88;;;2.65;;
51374;SDS011;37465;52.738;4.752;2022-10-16T05:07:06;16.75;;;3.42;;
51374;SDS011;37465;52.738;4.752;2022-10-16T05:09:34;19.48;;;3.50;;
51374;SDS011;37465;52.738;4.752;2022-10-16T05:12:02;20.20;;;3.57;;
51374;SDS011;37465;52.738;4.752;2022-10-16T05:14:30;15.15;;;3.13;;
51374;SDS011;37465;52.738;4.752;2022-10-16T05:16:57;20.83;;;3.42;;
51374;SDS011;37465;52.738;4.752;2022-10-16T05:19:24;19.65;;;3.63;;
51374;SDS011;37465;52.738;4.752;2022-10-16T05:21:53;17.17;;;3.45;;
51374;SDS011;37465;52.738;4.752;2022-10-16T05:24:21;18.23;;;3.30;;
51374;SDS011;37465;52.738;4.752;2022-10-16T05:26:49;18.45;;;3.70;;
51374;SDS011;37465;52.738;4.752;2022-10-16T05:29:17;15.85;;;2.80;;
51374;SDS011;37465;52.738;4.752;2022-10-16T05:31:44;17.13;;;3.10;;
51374;SDS011;37465;52.738;4.752;2022-10-16T05:34:12;16.05;;;3.33;;
51374;SDS011;37465;52.738;4.752;2022-10-16T05:36:39;16.42;;;3.60;;
51374;SDS011;37465;52.738;4.752;2022-10-16T05:39:06;18.10;;;3.85;;
51374;SDS011;37465;52.738;4.752;2022-10-16T05:41:34;18.98;;;3.08;;
51374;SDS011;37465;52.738;4.752;2022-10-16T05:44:04;12.60;;;2.60;;
51374;SDS011;37465;52.738;4.752;2022-10-16T05:46:32;13.18;;;2.70;;
51374;SDS011;37465;52.738;4.752;2022-10-16T05:49:00;10.60;;;2.30;;
51374;SDS011;37465;52.738;4.752;2022-10-16T05:51:27;12.50;;;2.85;;
51374;SDS011;37465;52.738;4.752;2022-10-16T05:53:55;12.90;;;2.90;;
51374;SDS011;37465;52.738;4.752;2022-10-16T05:56:22;12.15;;;2.60;;
51374;SDS011;37465;52.738;4.752;2022-10-16T05:58:50;14.10;;;2.60;;
51374;SDS011;37465;52.738;4.752;2022-10-16T06:01:19;12.27;;;2.80;;
51374;SDS011;37465;52.738;4.752;2022-10-16T06:03:50;14.87;;;2.80;;
51374;SDS011;37465;52.738;4.752;2022-10-16T06:06:17;13.60;;;2.40;;
51374;SDS011;37465;52.738;4.752;2022-10-16T06:08:46;11.82;;;3.00;;
51374;SDS011;37465;52.738;4.752;2022-10-16T06:11:14;12.25;;;2.70;;
51374;SDS011;37465;52.738;4.752;2022-10-16T06:13:41;15.30;;;2.85;;
51374;SDS011;37465;52.738;4.752;2022-10-16T06:16:12;18.23;;;3.53;;
51374;SDS011;37465;52.738;4.752;2022-10-16T06:18:41;17.55;;;3.33;;
51374;SDS011;37465;52.738;4.752;2022-10-16T06:21:08;17.58;;;3.30;;
51374;SDS011;37465;52.738;4.752;2022-10-16T06:23:36;19.73;;;5.00;;
51374;SDS011;37465;52.738;4.752;2022-10-16T06:26:04;21.75;;;4.13;;
51374;SDS011;37465;52.738;4.752;2022-10-16T06:28:32;21.30;;;3.80;;
51374;SDS011;37465;52.738;4.752;2022-10-16T06:31:00;20.73;;;3.92;;
51374;SDS011;37465;52.738;4.752;2022-10-16T06:33:33;22.02;;;3.72;;
51374;SDS011;37465;52.738;4.752;2022-10-16T06:36:02;14.20;;;2.80;;
51374;SDS011;37465;52.738;4.752;2022-10-16T06:38:30;19.30;;;3.40;;
51374;SDS011;37465;52.738;4.752;2022-10-16T06:40:57;19.63;;;3.35;;
51374;SDS011;37465;52.738;4.752;2022-10-16T06:43:25;18.08;;;3.30;;
51374;SDS011;37465;52.738;4.752;2022-10-16T06:45:52;21.13;;;3.10;;
51374;SDS011;37465;52.738;4.752;2022-10-16T06:48:20;19.20;;;3.45;;
51374;SDS011;37465;52.738;4.752;2022-10-16T06:50:55;16.13;;;3.10;;
51374;SDS011;37465;52.738;4.752;2022-10-16T06:53:24;14.75;;;2.80;;
51374;SDS011;37465;52.738;4.752;2022-10-16T06:55:51;17.88;;;3.50;;
51374;SDS011;37465;52.738;4.752;2022-10-16T06:58:19;16.05;;;3.30;;
51374;SDS011;37465;52.738;4.752;2022-10-16T07:00:46;13.85;;;3.15;;
51374;SDS011;37465;52.738;4.752;2022-10-16T07:03:14;18.02;;;3.45;;
51374;SDS011;37465;52.738;4.752;2022-10-16T07:05:41;19.10;;;3.33;;
51374;SDS011;37465;52.738;4.752;2022-10-16T07:08:09;16.10;;;3.40;;
51374;SDS011;37465;52.738;4.752;2022-10-16T07:10:38;14.65;;;3.28;;
51374;SDS011;37465;52.738;4.752;2022-10-16T07:13:05;14.20;;;3.00;;
51374;SDS011;37465;52.738;4.752;2022-10-16T07:15:33;18.60;;;3.47;;
51374;SDS011;37465;52.738;4.752;2022-10-16T07:18:01;14.73;;;3.03;;
51374;SDS011;37465;52.738;4.752;2022-10-16T07:20:28;16.85;;;3.33;;
51374;SDS011;37465;52.738;4.752;2022-10-16T07:22:56;19.38;;;3.75;;
51374;SDS011;37465;52.738;4.752;2022-10-16T07:25:23;15.85;;;3.50;;
51374;SDS011;37465;52.738;4.752;2022-10-16T07:27:52;16.27;;;3.47;;
51374;SDS011;37465;52.738;4.752;2022-10-16T07:30:22;20.73;;;3.30;;
51374;SDS011;37465;52.738;4.752;2022-10-16T07:32:50;16.45;;;3.78;;
51374;SDS011;37465;52.738;4.752;2022-10-16T07:35:17;16.92;;;3.25;;
51374;SDS011;37465;52.738;4.752;2022-10-16T07:37:45;19.75;;;3.40;;
51374;SDS011;37465;52.738;4.752;2022-10-16T07:40:12;14.30;;;3.13;;
51374;SDS011;37465;52.738;4.752;2022-10-16T07:42:40;17.20;;;3.58;;
51374;SDS011;37465;52.738;4.752;2022-10-16T07:45:09;17.50;;;2.83;;
51374;SDS011;37465;52.738;4.752;2022-10-16T07:47:36;18.15;;;3.40;;
51374;SDS011;37465;52.738;4.752;2022-10-16T07:50:04;19.63;;;3.80;;
51374;SDS011;37465;52.738;4.752;2022-10-16T07:52:31;14.60;;;3.13;;
51374;SDS011;37465;52.738;4.752;2022-10-16T07:54:59;13.00;;;2.90;;
51374;SDS011;37465;52.738;4.752;2022-10-16T07:57:26;14.45;;;3.00;;
51374;SDS011;37465;52.738;4.752;2022-10-16T07:59:54;13.70;;;3.08;;
51374;SDS011;37465;52.738;4.752;2022-10-16T08:02:23;15.07;;;3.13;;
51374;SDS011;37465;52.738;4.752;2022-10-16T08:04:50;17.42;;;3.30;;
51374;SDS011;37465;52.738;4.752;2022-10-16T08:07:17;12.82;;;2.60;;
51374;SDS011;37465;52.738;4.752;2022-10-16T08:09:48;12.05;;;2.50;;
51374;SDS011;37465;52.738;4.752;2022-10-16T08:12:15;12.20;;;2.92;;
51374;SDS011;37465;52.738;4.752;2022-10-16T08:14:43;16.55;;;2.72;;
51374;SDS011;37465;52.738;4.752;2022-10-16T08:17:13;14.20;;;2.90;;
51374;SDS011;37465;52.738;4.752;2022-10-16T08:19:45;14.93;;;3.10;;
51374;SDS011;37465;52.738;4.752;2022-10-16T08:22:12;13.73;;;2.88;;
51374;SDS011;37465;52.738;4.752;2022-10-16T08:24:45;15.20;;;2.92;;
51374;SDS011;37465;52.738;4.752;2022-10-16T08:27:12;14.50;;;2.70;;
51374;SDS011;37465;52.738;4.752;2022-10-16T08:29:39;9.00;;;2.50;;
51374;SDS011;37465;52.738;4.752;2022-10-16T08:32:07;12.27;;;2.47;;
51374;SDS011;37465;52.738;4.752;2022-10-16T08:34:34;12.43;;;2.75;;
51374;SDS011;37465;52.738;4.752;2022-10-16T08:37:03;13.95;;;2.97;;
51374;SDS011;37465;52.738;4.752;2022-10-16T08:39:31;9.98;;;2.30;;
51374;SDS011;37465;52.738;4.752;2022-10-16T08:42:11;10.38;;;2.20;;
51374;SDS011;37465;52.738;4.752;2022-10-16T08:47:29;9.32;;;2.17;;
51374;SDS011;37465;52.738;4.752;2022-10-16T08:50:08;9.48;;;2.35;;
51374;SDS011;37465;52.738;4.752;2022-10-16T08:52:40;9.82;;;2.40;;
51374;SDS011;37465;52.738;4.752;2022-10-16T08:55:09;12.68;;;3.00;;
51374;SDS011;37465;52.738;4.752;2022-10-16T08:57:43;10.45;;;2.65;;
51374;SDS011;37465;52.738;4.752;2022-10-16T09:00:12;10.52;;;2.60;;
51374;SDS011;37465;52.738;4.752;2022-10-16T09:02:42;11.65;;;2.92;;
51374;SDS011;37465;52.738;4.752;2022-10-16T09:05:17;10.00;;;2.10;;
51374;SDS011;37465;52.738;4.752;2022-10-16T09:07:51;13.68;;;2.75;;
51374;SDS011;37465;52.738;4.752;2022-10-16T09:10:24;11.27;;;2.33;;
51374;SDS011;37465;52.738;4.752;2022-10-16T09:12:54;11.52;;;2.35;;
51374;SDS011;37465;52.738;4.752;2022-10-16T09:15:27;9.10;;;2.27;;
51374;SDS011;37465;52.738;4.752;2022-10-16T09:17:58;11.82;;;2.55;;
51374;SDS011;37465;52.738;4.752;2022-10-16T09:20:29;7.30;;;1.80;;
51374;SDS011;37465;52.738;4.752;2022-10-16T09:23:07;8.23;;;2.10;;
51374;SDS011;37465;52.738;4.752;2022-10-16T09:25:35;12.25;;;2.67;;
51374;SDS011;37465;52.738;4.752;2022-10-16T09:28:03;12.17;;;2.60;;
51374;SDS011;37465;52.738;4.752;2022-10-16T09:30:30;9.02;;;2.22;;
51374;SDS011;37465;52.738;4.752;2022-10-16T09:32:58;9.82;;;2.50;;
51374;SDS011;37465;52.738;4.752;2022-10-16T09:35:27;9.32;;;2.05;;
51374;SDS011;37465;52.738;4.752;2022-10-16T09:37:58;9.35;;;2.45;;
51374;SDS011;37465;52.738;4.752;2022-10-16T09:40:28;9.83;;;2.53;;
51374;SDS011;37465;52.738;4.752;2022-10-16T09:42:57;9.15;;;2.45;;
51374;SDS011;37465;52.738;4.752;2022-10-16T09:45:28;12.20;;;2.30;;
51374;SDS011;37465;52.738;4.752;2022-10-16T09:47:56;10.48;;;2.33;;
51374;SDS011;37465;52.738;4.752;2022-10-16T09:50:24;9.53;;;2.20;;
51374;SDS011;37465;52.738;4.752;2022-10-16T09:53:05;11.98;;;2.25;;
51374;SDS011;37465;52.738;4.752;2022-10-16T09:55:34;8.97;;;2.00;;
51374;SDS011;37465;52.738;4.752;2022-10-16T09:58:01;9.40;;;2.13;;
51374;SDS011;37465;52.738;4.752;2022-10-16T10:00:28;11.02;;;2.47;;
51374;SDS011;37465;52.738;4.752;2022-10-16T10:02:56;12.45;;;2.70;;
51374;SDS011;37465;52.738;4.752;2022-10-16T10:05:25;12.30;;;2.63;;
51374;SDS011;37465;52.738;4.752;2022-10-16T10:07:56;9.73;;;2.05;;
51374;SDS011;37465;52.738;4.752;2022-10-16T10:10:25;9.00;;;1.98;;
51374;SDS011;37465;52.738;4.752;2022-10-16T10:12:55;8.18;;;2.30;;
51374;SDS011;37465;52.738;4.752;2022-10-16T10:15:23;8.05;;;1.88;;
51374;SDS011;37465;52.738;4.752;2022-10-16T10:17:53;9.68;;;2.13;;
51374;SDS011;37465;52.738;4.752;2022-10-16T10:20:25;11.38;;;2.40;;
51374;SDS011;37465;52.738;4.752;2022-10-16T10:22:53;12.35;;;2.72;;
51374;SDS011;37465;52.738;4.752;2022-10-16T10:25:26;8.90;;;2.03;;
51374;SDS011;37465;52.738;4.752;2022-10-16T10:28:14;8.70;;;1.95;;
51374;SDS011;37465;52.738;4.752;2022-10-16T10:30:47;8.95;;;2.33;;
51374;SDS011;37465;52.738;4.752;2022-10-16T10:33:18;8.60;;;2.13;;
51374;SDS011;37465;52.738;4.752;2022-10-16T10:35:49;9.47;;;2.03;;
51374;SDS011;37465;52.738;4.752;2022-10-16T10:38:23;9.82;;;2.63;;
51374;SDS011;37465;52.738;4.752;2022-10-16T10:40:55;7.85;;;1.95;;
51374;SDS011;37465;52.738;4.752;2022-10-16T10:43:31;12.00;;;2.25;;
51374;SDS011;37465;52.738;4.752;2022-10-16T10:46:05;10.40;;;2.45;;
51374;SDS011;37465;52.738;4.752;2022-10-16T10:48:43;9.80;;;2.40;;
51374;SDS011;37465;52.738;4.752;2022-10-16T10:51:16;10.20;;;2.30;;
51374;SDS011;37465;52.738;4.752;2022-10-16T10:53:47;13.40;;;2.35;;
51374;SDS011;37465;52.738;4.752;2022-10-16T10:56:20;10.67;;;2.13;;
51374;SDS011;37465;52.738;4.752;2022-10-16T11:01:37;9.68;;;2.08;;
51374;SDS011;37465;52.738;4.752;2022-10-16T11:04:14;8.02;;;2.25;;
51374;SDS011;37465;52.738;4.752;2022-10-16T11:06:45;7.93;;;1.95;;
51374;SDS011;37465;52.738;4.752;2022-10-16T11:09:15;6.78;;;1.80;;
51374;SDS011;37465;52.738;4.752;2022-10-16T11:11:44;8.85;;;2.00;;
51374;SDS011;37465;52.738;4.752;2022-10-16T11:14:14;9.70;;;2.28;;
51374;SDS011;37465;52.738;4.752;2022-10-16T11:16:45;7.25;;;1.80;;
51374;SDS011;37465;52.738;4.752;2022-10-16T11:19:19;9.57;;;2.27;;
51374;SDS011;37465;52.738;4.752;2022-10-16T11:21:48;7.53;;;1.90;;
51374;SDS011;37465;52.738;4.752;2022-10-16T11:24:18;10.43;;;2.10;;
51374;SDS011;37465;52.738;4.752;2022-10-16T11:26:47;11.32;;;2.22;;
51374;SDS011;37465;52.738;4.752;2022-10-16T11:29:17;8.02;;;2.15;;
51374;SDS011;37465;52.738;4.752;2022-10-16T11:31:49;8.27;;;2.20;;
51374;SDS011;37465;52.738;4.752;2022-10-16T11:34:19;8.68;;;2.00;;
51374;SDS011;37465;52.738;4.752;2022-10-16T11:36:50;8.98;;;2.17;;
51374;SDS011;37465;52.738;4.752;2022-10-16T11:39:19;8.80;;;2.05;;
51374;SDS011;37465;52.738;4.752;2022-10-16T11:41:48;9.07;;;2.13;;
51374;SDS011;37465;52.738;4.752;2022-10-16T11:44:19;9.90;;;2.00;;
51374;SDS011;37465;52.738;4.752;2022-10-16T11:46:51;9.85;;;1.98;;
51374;SDS011;37465;52.738;4.752;2022-10-16T11:49:34;7.55;;;2.25;;
51374;SDS011;37465;52.738;4.752;2022-10-16T11:52:05;8.10;;;1.80;;
51374;SDS011;37465;52.738;4.752;2022-10-16T11:54:35;5.65;;;1.75;;
51374;SDS011;37465;52.738;4.752;2022-10-16T11:57:08;6.43;;;1.90;;
51374;SDS011;37465;52.738;4.752;2022-10-16T11:59:39;8.30;;;2.17;;
51374;SDS011;37465;52.738;4.752;2022-10-16T12:02:17;6.78;;;1.90;;
51374;SDS011;37465;52.738;4.752;2022-10-16T12:04:50;6.80;;;1.80;;
51374;SDS011;37465;52.738;4.752;2022-10-16T12:07:23;6.72;;;2.17;;
51374;SDS011;37465;52.738;4.752;2022-10-16T12:09:51;9.32;;;2.13;;
51374;SDS011;37465;52.738;4.752;2022-10-16T12:12:25;7.25;;;2.13;;
51374;SDS011;37465;52.738;4.752;2022-10-16T12:15:00;7.32;;;2.25;;
51374;SDS011;37465;52.738;4.752;2022-10-16T12:17:46;7.55;;;2.20;;
51374;SDS011;37465;52.738;4.752;2022-10-16T12:20:21;7.22;;;2.10;;
51374;SDS011;37465;52.738;4.752;2022-10-16T12:22:50;7.55;;;2.00;;
51374;SDS011;37465;52.738;4.752;2022-10-16T12:25:20;8.25;;;1.80;;
51374;SDS011;37465;52.738;4.752;2022-10-16T12:27:53;8.40;;;2.10;;
51374;SDS011;37465;52.738;4.752;2022-10-16T12:30:22;7.35;;;1.80;;
51374;SDS011;37465;52.738;4.752;2022-10-16T12:32:54;9.10;;;1.88;;
51374;SDS011;37465;52.738;4.752;2022-10-16T12:35:23;7.32;;;1.77;;
51374;SDS011;37465;52.738;4.752;2022-10-16T12:37:51;6.70;;;1.70;;
51374;SDS011;37465;52.738;4.752;2022-10-16T12:40:26;9.98;;;2.10;;
51374;SDS011;37465;52.738;4.752;2022-10-16T12:42:54;7.30;;;1.80;;
51374;SDS011;37465;52.738;4.752;2022-10-16T12:45:26;7.47;;;1.97;;
51374;SDS011;37465;52.738;4.752;2022-10-16T12:47:55;5.60;;;1.45;;
51374;SDS011;37465;52.738;4.752;2022-10-16T12:50:23;8.73;;;2.23;;
51374;SDS011;37465;52.738;4.752;2022-10-16T12:52:52;8.13;;;2.10;;
51374;SDS011;37465;52.738;4.752;2022-10-16T12:55:20;6.37;;;1.67;;
51374;SDS011;37465;52.738;4.752;2022-10-16T12:57:54;9.40;;;2.20;;
51374;SDS011;37465;52.738;4.752;2022-10-16T13:00:25;6.78;;;1.50;;
51374;SDS011;37465;52.738;4.752;2022-10-16T13:03:00;9.13;;;2.00;;
51374;SDS011;37465;52.738;4.752;2022-10-16T13:05:40;8.52;;;2.20;;
51374;SDS011;37465;52.738;4.752;2022-10-16T13:08:13;7.83;;;1.77;;
51374;SDS011;37465;52.738;4.752;2022-10-16T13:10:46;5.88;;;1.65;;
51374;SDS011;37465;52.738;4.752;2022-10-16T13:13:27;8.50;;;1.98;;
51374;SDS011;37465;52.738;4.752;2022-10-16T13:16:06;7.78;;;1.83;;
51374;SDS011;37465;52.738;4.752;2022-10-16T13:18:39;7.43;;;1.65;;
51374;SDS011;37465;52.738;4.752;2022-10-16T13:21:11;6.73;;;1.80;;
51374;SDS011;37465;52.738;4.752;2022-10-16T13:23:44;6.57;;;1.60;;
51374;SDS011;37465;52.738;4.752;2022-10-16T13:26:17;5.97;;;1.70;;
51374;SDS011;37465;52.738;4.752;2022-10-16T13:28:47;6.70;;;1.42;;
51374;SDS011;37465;52.738;4.752;2022-10-16T13:31:16;5.47;;;1.42;;
51374;SDS011;37465;52.738;4.752;2022-10-16T13:33:47;5.07;;;1.70;;
51374;SDS011;37465;52.738;4.752;2022-10-16T13:36:20;5.90;;;1.50;;
51374;SDS011;37465;52.738;4.752;2022-10-16T13:38:48;6.63;;;1.90;;
51374;SDS011;37465;52.738;4.752;2022-10-16T13:41:16;6.30;;;1.50;;
51374;SDS011;37465;52.738;4.752;2022-10-16T13:43:44;7.05;;;1.75;;
51374;SDS011;37465;52.738;4.752;2022-10-16T13:46:13;6.07;;;2.00;;
51374;SDS011;37465;52.738;4.752;2022-10-16T13:48:41;6.87;;;1.60;;
51374;SDS011;37465;52.738;4.752;2022-10-16T13:51:13;6.15;;;1.48;;
51374;SDS011;37465;52.738;4.752;2022-10-16T13:53:41;7.38;;;1.70;;
51374;SDS011;37465;52.738;4.752;2022-10-16T13:56:10;6.15;;;1.67;;
51374;SDS011;37465;52.738;4.752;2022-10-16T13:58:38;6.72;;;1.83;;
51374;SDS011;37465;52.738;4.752;2022-10-16T14:01:06;7.95;;;1.70;;
51374;SDS011;37465;52.738;4.752;2022-10-16T14:03:41;5.60;;;1.70;;
51374;SDS011;37465;52.738;4.752;2022-10-16T14:06:12;6.43;;;1.83;;
51374;SDS011;37465;52.738;4.752;2022-10-16T14:08:42;5.50;;;1.80;;
51374;SDS011;37465;52.738;4.752;2022-10-16T14:11:10;6.68;;;1.50;;
51374;SDS011;37465;52.738;4.752;2022-10-16T14:13:38;7.80;;;1.80;;
51374;SDS011;37465;52.738;4.752;2022-10-16T14:16:08;6.05;;;1.55;;
51374;SDS011;37465;52.738;4.752;2022-10-16T14:18:37;7.20;;;1.70;;
51374;SDS011;37465;52.738;4.752;2022-10-16T14:21:05;6.83;;;1.67;;
51374;SDS011;37465;52.738;4.752;2022-10-16T14:23:35;6.97;;;1.42;;
51374;SDS011;37465;52.738;4.752;2022-10-16T14:26:12;6.25;;;1.58;;
51374;SDS011;37465;52.738;4.752;2022-10-16T14:28:40;7.75;;;1.70;;
51374;SDS011;37465;52.738;4.752;2022-10-16T14:33:56;7.25;;;1.58;;
51374;SDS011;37465;52.738;4.752;2022-10-16T14:36:24;6.18;;;1.30;;
51374;SDS011;37465;52.738;4.752;2022-10-16T14:38:56;6.70;;;1.30;;
51374;SDS011;37465;52.738;4.752;2022-10-16T14:41:24;9.50;;;1.87;;
51374;SDS011;37465;52.738;4.752;2022-10-16T14:43:53;9.75;;;2.15;;
51374;SDS011;37465;52.738;4.752;2022-10-16T14:46:21;7.75;;;1.95;;
51374;SDS011;37465;52.738;4.752;2022-10-16T14:48:53;6.43;;;1.98;;
51374;SDS011;37465;52.738;4.752;2022-10-16T14:51:21;7.90;;;1.83;;
51374;SDS011;37465;52.738;4.752;2022-10-16T14:53:49;9.40;;;1.63;;
51374;SDS011;37465;52.738;4.752;2022-10-16T14:56:19;7.22;;;1.60;;
51374;SDS011;37465;52.738;4.752;2022-10-16T14:58:46;5.95;;;1.77;;
51374;SDS011;37465;52.738;4.752;2022-10-16T15:01:14;6.55;;;1.67;;
51374;SDS011;37465;52.738;4.752;2022-10-16T15:03:41;6.47;;;1.67;;
51374;SDS011;37465;52.738;4.752;2022-10-16T15:06:09;7.68;;;1.60;;